Wilsonville, Illinois
Current Conditions -  °F | °C
As of 9:35 AM on Friday 19 Dec 2014 (Local Time) from K3LF Reporting Station
Overcast Overcast  
Wind Chill: 30°   Ceiling: 3100
Heat Index: 30°   Visibility: 7mi
Dew Point: 23°   Wind: 3mph
Humidity: 76%   Direction: 80°E
Pressure: 30.32"   Gusts: NA
Location:  39.07°N, 89.86°W
Report Text: K3LF 191535Z AUTO 08003KT 7SM OVC031 M01/M05 A3032 RMK AO2 T10111048
Loading
Personal Weather Stations






























Interactive Weather Map New forecast layout! Learn more

10-Day Weather Forecast

Advertisements
Track Severe Weather on mobile